sensor_id;sensor_type;location;lat;lon;timestamp;P1;durP1;ratioP1;P2;durP2;ratioP2
16312;SDS011;8265;52.622;13.296;2022-08-01T00:05:16;2.50;;;2.30;;
16312;SDS011;8265;52.622;13.296;2022-08-01T00:10:37;4.40;;;3.90;;
16312;SDS011;8265;52.622;13.296;2022-08-01T00:15:58;5.50;;;3.90;;
16312;SDS011;8265;52.622;13.296;2022-08-01T00:21:19;3.90;;;3.60;;
16312;SDS011;8265;52.622;13.296;2022-08-01T00:26:40;4.90;;;4.50;;
16312;SDS011;8265;52.622;13.296;2022-08-01T00:32:01;7.90;;;7.10;;
16312;SDS011;8265;52.622;13.296;2022-08-01T00:37:22;10.80;;;9.10;;
16312;SDS011;8265;52.622;13.296;2022-08-01T00:42:43;10.00;;;8.10;;
16312;SDS011;8265;52.622;13.296;2022-08-01T00:48:04;12.70;;;8.40;;
16312;SDS011;8265;52.622;13.296;2022-08-01T00:53:25;10.20;;;6.10;;
16312;SDS011;8265;52.622;13.296;2022-08-01T00:58:46;6.80;;;6.10;;
16312;SDS011;8265;52.622;13.296;2022-08-01T01:04:07;12.40;;;6.80;;
16312;SDS011;8265;52.622;13.296;2022-08-01T01:09:32;7.30;;;6.60;;
16312;SDS011;8265;52.622;13.296;2022-08-01T01:14:50;9.40;;;8.50;;
16312;SDS011;8265;52.622;13.296;2022-08-01T01:20:11;11.40;;;9.10;;
16312;SDS011;8265;52.622;13.296;2022-08-01T01:25:39;11.10;;;9.80;;
16312;SDS011;8265;52.622;13.296;2022-08-01T01:30:52;9.30;;;6.90;;
16312;SDS011;8265;52.622;13.296;2022-08-01T01:36:13;11.20;;;10.00;;
16312;SDS011;8265;52.622;13.296;2022-08-01T01:41:33;9.30;;;8.40;;
16312;SDS011;8265;52.622;13.296;2022-08-01T01:46:55;8.80;;;7.90;;
16312;SDS011;8265;52.622;13.296;2022-08-01T01:52:16;9.90;;;7.80;;
16312;SDS011;8265;52.622;13.296;2022-08-01T01:57:36;15.60;;;14.10;;
16312;SDS011;8265;52.622;13.296;2022-08-01T02:02:58;15.80;;;14.20;;
16312;SDS011;8265;52.622;13.296;2022-08-01T02:08:18;15.30;;;13.80;;
16312;SDS011;8265;52.622;13.296;2022-08-01T02:13:39;11.60;;;9.80;;
16312;SDS011;8265;52.622;13.296;2022-08-01T02:19:00;15.40;;;9.00;;
16312;SDS011;8265;52.622;13.296;2022-08-01T02:24:29;18.00;;;10.90;;
16312;SDS011;8265;52.622;13.296;2022-08-01T02:29:43;16.60;;;9.30;;
16312;SDS011;8265;52.622;13.296;2022-08-01T02:35:03;10.90;;;9.80;;
16312;SDS011;8265;52.622;13.296;2022-08-01T02:40:24;11.50;;;10.10;;
16312;SDS011;8265;52.622;13.296;2022-08-01T02:45:46;17.20;;;12.00;;
16312;SDS011;8265;52.622;13.296;2022-08-01T02:51:06;18.20;;;11.80;;
16312;SDS011;8265;52.622;13.296;2022-08-01T02:56:27;16.10;;;11.10;;
16312;SDS011;8265;52.622;13.296;2022-08-01T03:01:48;12.80;;;10.50;;
16312;SDS011;8265;52.622;13.296;2022-08-01T03:07:09;12.40;;;11.10;;
16312;SDS011;8265;52.622;13.296;2022-08-01T03:12:30;12.90;;;11.50;;
16312;SDS011;8265;52.622;13.296;2022-08-01T03:17:51;16.70;;;10.80;;
16312;SDS011;8265;52.622;13.296;2022-08-01T03:23:12;16.80;;;15.10;;
16312;SDS011;8265;52.622;13.296;2022-08-01T03:28:33;14.80;;;11.10;;
16312;SDS011;8265;52.622;13.296;2022-08-01T03:33:54;18.30;;;12.00;;
16312;SDS011;8265;52.622;13.296;2022-08-01T03:39:15;11.50;;;10.30;;
16312;SDS011;8265;52.622;13.296;2022-08-01T03:44:36;13.40;;;11.70;;
16312;SDS011;8265;52.622;13.296;2022-08-01T03:49:57;15.50;;;14.10;;
16312;SDS011;8265;52.622;13.296;2022-08-01T03:55:18;11.10;;;10.00;;
16312;SDS011;8265;52.622;13.296;2022-08-01T04:00:39;14.20;;;12.80;;
16312;SDS011;8265;52.622;13.296;2022-08-01T04:06:00;10.10;;;9.00;;
16312;SDS011;8265;52.622;13.296;2022-08-01T04:11:21;11.20;;;9.50;;
16312;SDS011;8265;52.622;13.296;2022-08-01T04:16:42;10.90;;;9.40;;
16312;SDS011;8265;52.622;13.296;2022-08-01T04:22:03;10.40;;;9.30;;
16312;SDS011;8265;52.622;13.296;2022-08-01T04:27:25;12.80;;;10.60;;
16312;SDS011;8265;52.622;13.296;2022-08-01T04:32:45;15.80;;;10.30;;
16312;SDS011;8265;52.622;13.296;2022-08-01T04:38:05;15.20;;;10.40;;
16312;SDS011;8265;52.622;13.296;2022-08-01T04:43:26;12.30;;;9.80;;
16312;SDS011;8265;52.622;13.296;2022-08-01T04:48:47;12.60;;;10.50;;
16312;SDS011;8265;52.622;13.296;2022-08-01T04:54:08;11.50;;;8.10;;
16312;SDS011;8265;52.622;13.296;2022-08-01T04:59:29;11.40;;;9.40;;
16312;SDS011;8265;52.622;13.296;2022-08-01T05:04:50;15.50;;;10.20;;
16312;SDS011;8265;52.622;13.296;2022-08-01T05:10:11;21.20;;;10.90;;
16312;SDS011;8265;52.622;13.296;2022-08-01T05:15:32;18.70;;;12.30;;
16312;SDS011;8265;52.622;13.296;2022-08-01T05:20:53;18.90;;;11.40;;
16312;SDS011;8265;52.622;13.296;2022-08-01T05:26:14;12.90;;;11.50;;
16312;SDS011;8265;52.622;13.296;2022-08-01T05:31:35;13.20;;;10.60;;
16312;SDS011;8265;52.622;13.296;2022-08-01T05:36:56;16.70;;;12.50;;
16312;SDS011;8265;52.622;13.296;2022-08-01T05:42:17;19.80;;;16.30;;
16312;SDS011;8265;52.622;13.296;2022-08-01T05:47:38;13.90;;;12.40;;
16312;SDS011;8265;52.622;13.296;2022-08-01T05:52:59;15.60;;;12.00;;
16312;SDS011;8265;52.622;13.296;2022-08-01T05:58:20;13.50;;;10.60;;
16312;SDS011;8265;52.622;13.296;2022-08-01T06:03:41;18.10;;;12.30;;
16312;SDS011;8265;52.622;13.296;2022-08-01T06:09:02;14.20;;;12.30;;
16312;SDS011;8265;52.622;13.296;2022-08-01T06:14:23;13.20;;;11.20;;
16312;SDS011;8265;52.622;13.296;2022-08-01T06:19:44;12.00;;;9.90;;
16312;SDS011;8265;52.622;13.296;2022-08-01T06:25:07;12.70;;;11.00;;
16312;SDS011;8265;52.622;13.296;2022-08-01T06:30:26;11.10;;;8.20;;
16312;SDS011;8265;52.622;13.296;2022-08-01T06:35:47;8.50;;;7.50;;
16312;SDS011;8265;52.622;13.296;2022-08-01T06:41:08;7.80;;;7.10;;
16312;SDS011;8265;52.622;13.296;2022-08-01T06:46:29;7.60;;;6.70;;
16312;SDS011;8265;52.622;13.296;2022-08-01T06:51:50;11.90;;;5.20;;
16312;SDS011;8265;52.622;13.296;2022-08-01T06:57:11;5.40;;;4.90;;
16312;SDS011;8265;52.622;13.296;2022-08-01T07:02:32;6.30;;;5.70;;
16312;SDS011;8265;52.622;13.296;2022-08-01T07:07:53;5.70;;;3.80;;
16312;SDS011;8265;52.622;13.296;2022-08-01T07:13:14;5.50;;;5.00;;
16312;SDS011;8265;52.622;13.296;2022-08-01T07:18:35;5.20;;;4.80;;
16312;SDS011;8265;52.622;13.296;2022-08-01T07:23:56;4.40;;;3.90;;
16312;SDS011;8265;52.622;13.296;2022-08-01T07:29:17;4.90;;;3.70;;
16312;SDS011;8265;52.622;13.296;2022-08-01T07:34:37;5.20;;;4.70;;
16312;SDS011;8265;52.622;13.296;2022-08-01T07:39:58;4.80;;;4.40;;
16312;SDS011;8265;52.622;13.296;2022-08-01T07:45:20;6.80;;;3.70;;
16312;SDS011;8265;52.622;13.296;2022-08-01T07:50:40;5.60;;;4.80;;
16312;SDS011;8265;52.622;13.296;2022-08-01T07:56:01;3.90;;;3.50;;
16312;SDS011;8265;52.622;13.296;2022-08-01T08:01:22;5.30;;;4.80;;
16312;SDS011;8265;52.622;13.296;2022-08-01T08:06:43;3.70;;;3.40;;
16312;SDS011;8265;52.622;13.296;2022-08-01T08:12:05;8.50;;;4.20;;
16312;SDS011;8265;52.622;13.296;2022-08-01T08:17:25;2.80;;;2.60;;
16312;SDS011;8265;52.622;13.296;2022-08-01T08:22:46;3.70;;;3.20;;
16312;SDS011;8265;52.622;13.296;2022-08-01T08:28:07;2.40;;;2.20;;
16312;SDS011;8265;52.622;13.296;2022-08-01T08:33:28;3.50;;;2.90;;
16312;SDS011;8265;52.622;13.296;2022-08-01T08:38:49;2.90;;;2.40;;
16312;SDS011;8265;52.622;13.296;2022-08-01T08:44:10;4.20;;;2.70;;
16312;SDS011;8265;52.622;13.296;2022-08-01T08:49:31;3.60;;;2.50;;
16312;SDS011;8265;52.622;13.296;2022-08-01T08:54:52;4.20;;;3.30;;
16312;SDS011;8265;52.622;13.296;2022-08-01T09:00:14;10.10;;;2.50;;
16312;SDS011;8265;52.622;13.296;2022-08-01T09:05:34;1.60;;;1.50;;
16312;SDS011;8265;52.622;13.296;2022-08-01T09:10:55;10.70;;;3.10;;
16312;SDS011;8265;52.622;13.296;2022-08-01T09:16:16;2.20;;;2.00;;
16312;SDS011;8265;52.622;13.296;2022-08-01T09:21:37;8.40;;;6.60;;
16312;SDS011;8265;52.622;13.296;2022-08-01T09:26:58;2.80;;;2.40;;
16312;SDS011;8265;52.622;13.296;2022-08-01T09:32:19;3.40;;;3.10;;
16312;SDS011;8265;52.622;13.296;2022-08-01T09:37:40;2.80;;;2.40;;
16312;SDS011;8265;52.622;13.296;2022-08-01T09:43:10;2.90;;;2.40;;
16312;SDS011;8265;52.622;13.296;2022-08-01T09:48:22;5.00;;;3.30;;
16312;SDS011;8265;52.622;13.296;2022-08-01T09:53:45;2.50;;;2.30;;
16312;SDS011;8265;52.622;13.296;2022-08-01T09:59:04;2.90;;;2.60;;
16312;SDS011;8265;52.622;13.296;2022-08-01T10:04:25;3.30;;;2.40;;
16312;SDS011;8265;52.622;13.296;2022-08-01T10:09:46;2.60;;;2.20;;
16312;SDS011;8265;52.622;13.296;2022-08-01T10:15:07;2.40;;;2.20;;
16312;SDS011;8265;52.622;13.296;2022-08-01T10:20:28;1.70;;;1.60;;
16312;SDS011;8265;52.622;13.296;2022-08-01T10:25:49;3.50;;;1.60;;
16312;SDS011;8265;52.622;13.296;2022-08-01T10:31:11;1.90;;;1.80;;
16312;SDS011;8265;52.622;13.296;2022-08-01T10:36:31;3.60;;;1.90;;
16312;SDS011;8265;52.622;13.296;2022-08-01T10:41:52;1.50;;;1.40;;
16312;SDS011;8265;52.622;13.296;2022-08-01T10:47:13;5.30;;;3.80;;
16312;SDS011;8265;52.622;13.296;2022-08-01T10:52:34;2.10;;;1.60;;
16312;SDS011;8265;52.622;13.296;2022-08-01T10:57:55;5.60;;;1.80;;
16312;SDS011;8265;52.622;13.296;2022-08-01T11:03:16;1.60;;;1.50;;
16312;SDS011;8265;52.622;13.296;2022-08-01T11:08:39;1.50;;;1.40;;
16312;SDS011;8265;52.622;13.296;2022-08-01T11:14:01;2.30;;;2.10;;
16312;SDS011;8265;52.622;13.296;2022-08-01T11:19:19;2.60;;;1.70;;
16312;SDS011;8265;52.622;13.296;2022-08-01T11:24:55;8.60;;;4.40;;
16312;SDS011;8265;52.622;13.296;2022-08-01T11:35:22;1.20;;;1.10;;
16312;SDS011;8265;52.622;13.296;2022-08-01T11:40:42;3.90;;;1.30;;
16312;SDS011;8265;52.622;13.296;2022-08-01T11:46:03;1.60;;;1.40;;
16312;SDS011;8265;52.622;13.296;2022-08-01T11:51:24;1.90;;;1.00;;
16312;SDS011;8265;52.622;13.296;2022-08-01T11:56:45;5.00;;;4.40;;
16312;SDS011;8265;52.622;13.296;2022-08-01T12:02:15;0.60;;;0.60;;
16312;SDS011;8265;52.622;13.296;2022-08-01T12:07:28;1.00;;;1.00;;
16312;SDS011;8265;52.622;13.296;2022-08-01T12:12:49;1.10;;;1.00;;
16312;SDS011;8265;52.622;13.296;2022-08-01T12:18:09;3.00;;;1.50;;
16312;SDS011;8265;52.622;13.296;2022-08-01T12:23:30;3.30;;;2.40;;
16312;SDS011;8265;52.622;13.296;2022-08-01T12:28:51;2.60;;;1.40;;
16312;SDS011;8265;52.622;13.296;2022-08-01T12:34:27;2.30;;;2.10;;
16312;SDS011;8265;52.622;13.296;2022-08-01T12:39:33;2.60;;;2.00;;
16312;SDS011;8265;52.622;13.296;2022-08-01T12:44:54;3.50;;;2.00;;
16312;SDS011;8265;52.622;13.296;2022-08-01T12:50:15;3.20;;;2.50;;
16312;SDS011;8265;52.622;13.296;2022-08-01T12:55:44;5.80;;;4.20;;
16312;SDS011;8265;52.622;13.296;2022-08-01T13:01:03;6.00;;;2.10;;
16312;SDS011;8265;52.622;13.296;2022-08-01T13:06:18;5.60;;;3.80;;
16312;SDS011;8265;52.622;13.296;2022-08-01T13:11:39;5.00;;;2.90;;
16312;SDS011;8265;52.622;13.296;2022-08-01T13:17:00;7.20;;;2.10;;
16312;SDS011;8265;52.622;13.296;2022-08-01T13:22:21;4.70;;;4.00;;
16312;SDS011;8265;52.622;13.296;2022-08-01T13:27:42;1.70;;;1.60;;
16312;SDS011;8265;52.622;13.296;2022-08-01T13:33:02;2.00;;;1.80;;
16312;SDS011;8265;52.622;13.296;2022-08-01T13:38:23;4.50;;;2.00;;
16312;SDS011;8265;52.622;13.296;2022-08-01T13:43:44;2.10;;;1.70;;
16312;SDS011;8265;52.622;13.296;2022-08-01T13:49:06;2.80;;;2.00;;
16312;SDS011;8265;52.622;13.296;2022-08-01T13:54:26;2.40;;;1.80;;
16312;SDS011;8265;52.622;13.296;2022-08-01T13:59:47;7.70;;;3.10;;
16312;SDS011;8265;52.622;13.296;2022-08-01T14:05:08;8.00;;;5.60;;
16312;SDS011;8265;52.622;13.296;2022-08-01T14:10:29;4.80;;;3.70;;
16312;SDS011;8265;52.622;13.296;2022-08-01T14:15:50;4.30;;;3.80;;
16312;SDS011;8265;52.622;13.296;2022-08-01T14:21:11;2.00;;;1.70;;
16312;SDS011;8265;52.622;13.296;2022-08-01T14:26:32;6.50;;;4.60;;
16312;SDS011;8265;52.622;13.296;2022-08-01T14:31:53;2.50;;;2.10;;
16312;SDS011;8265;52.622;13.296;2022-08-01T14:37:14;5.10;;;2.00;;
16312;SDS011;8265;52.622;13.296;2022-08-01T14:42:35;3.10;;;2.80;;
16312;SDS011;8265;52.622;13.296;2022-08-01T14:47:56;1.30;;;1.20;;
16312;SDS011;8265;52.622;13.296;2022-08-01T14:53:17;2.20;;;1.20;;
16312;SDS011;8265;52.622;13.296;2022-08-01T14:58:38;2.80;;;1.20;;
16312;SDS011;8265;52.622;13.296;2022-08-01T15:03:59;2.70;;;1.30;;
16312;SDS011;8265;52.622;13.296;2022-08-01T15:09:20;4.20;;;1.10;;
16312;SDS011;8265;52.622;13.296;2022-08-01T15:14:41;0.60;;;0.60;;
16312;SDS011;8265;52.622;13.296;2022-08-01T15:20:02;4.80;;;1.20;;
16312;SDS011;8265;52.622;13.296;2022-08-01T15:25:23;2.30;;;1.20;;
16312;SDS011;8265;52.622;13.296;2022-08-01T15:30:44;7.40;;;4.80;;
16312;SDS011;8265;52.622;13.296;2022-08-01T15:36:05;4.10;;;3.40;;
16312;SDS011;8265;52.622;13.296;2022-08-01T15:41:25;2.00;;;1.80;;
16312;SDS011;8265;52.622;13.296;2022-08-01T15:46:46;1.30;;;0.80;;
16312;SDS011;8265;52.622;13.296;2022-08-01T15:52:08;2.30;;;1.70;;
16312;SDS011;8265;52.622;13.296;2022-08-01T15:57:28;2.10;;;1.80;;
16312;SDS011;8265;52.622;13.296;2022-08-01T16:02:49;5.00;;;4.00;;
16312;SDS011;8265;52.622;13.296;2022-08-01T16:08:11;0.80;;;0.80;;
16312;SDS011;8265;52.622;13.296;2022-08-01T16:13:31;3.20;;;2.30;;
16312;SDS011;8265;52.622;13.296;2022-08-01T16:18:52;1.20;;;1.10;;
16312;SDS011;8265;52.622;13.296;2022-08-01T16:24:13;2.20;;;1.30;;
16312;SDS011;8265;52.622;13.296;2022-08-01T16:29:34;5.10;;;1.30;;
16312;SDS011;8265;52.622;13.296;2022-08-01T16:34:55;12.10;;;5.90;;
16312;SDS011;8265;52.622;13.296;2022-08-01T16:40:16;1.40;;;1.00;;
16312;SDS011;8265;52.622;13.296;2022-08-01T16:45:37;0.80;;;0.80;;
16312;SDS011;8265;52.622;13.296;2022-08-01T16:50:58;1.70;;;1.00;;
16312;SDS011;8265;52.622;13.296;2022-08-01T16:56:19;1.10;;;0.90;;
16312;SDS011;8265;52.622;13.296;2022-08-01T17:01:40;10.30;;;8.10;;
16312;SDS011;8265;52.622;13.296;2022-08-01T17:07:01;2.20;;;1.80;;
16312;SDS011;8265;52.622;13.296;2022-08-01T17:12:22;0.80;;;0.70;;
16312;SDS011;8265;52.622;13.296;2022-08-01T17:17:43;3.30;;;3.00;;
16312;SDS011;8265;52.622;13.296;2022-08-01T17:23:04;2.20;;;0.70;;
16312;SDS011;8265;52.622;13.296;2022-08-01T17:28:25;2.50;;;1.80;;
16312;SDS011;8265;52.622;13.296;2022-08-01T17:33:46;1.70;;;1.30;;
16312;SDS011;8265;52.622;13.296;2022-08-01T17:39:07;3.90;;;3.50;;
16312;SDS011;8265;52.622;13.296;2022-08-01T17:44:28;7.00;;;1.60;;
16312;SDS011;8265;52.622;13.296;2022-08-01T17:49:49;17.00;;;12.30;;
16312;SDS011;8265;52.622;13.296;2022-08-01T17:55:10;3.20;;;1.00;;
16312;SDS011;8265;52.622;13.296;2022-08-01T18:00:31;0.90;;;0.90;;
16312;SDS011;8265;52.622;13.296;2022-08-01T18:05:52;19.20;;;14.70;;
16312;SDS011;8265;52.622;13.296;2022-08-01T18:11:13;1.60;;;1.40;;
16312;SDS011;8265;52.622;13.296;2022-08-01T18:16:33;4.40;;;1.60;;
16312;SDS011;8265;52.622;13.296;2022-08-01T18:21:54;3.50;;;1.40;;
16312;SDS011;8265;52.622;13.296;2022-08-01T18:27:15;1.10;;;1.00;;
16312;SDS011;8265;52.622;13.296;2022-08-01T18:32:36;2.10;;;1.20;;
16312;SDS011;8265;52.622;13.296;2022-08-01T18:37:57;0.90;;;0.70;;
16312;SDS011;8265;52.622;13.296;2022-08-01T18:43:18;2.30;;;1.60;;
16312;SDS011;8265;52.622;13.296;2022-08-01T18:48:39;1.20;;;1.10;;
16312;SDS011;8265;52.622;13.296;2022-08-01T18:54:00;1.00;;;0.90;;
16312;SDS011;8265;52.622;13.296;2022-08-01T18:59:21;5.80;;;0.70;;
16312;SDS011;8265;52.622;13.296;2022-08-01T19:04:42;1.20;;;1.10;;
16312;SDS011;8265;52.622;13.296;2022-08-01T19:10:03;0.80;;;0.80;;
16312;SDS011;8265;52.622;13.296;2022-08-01T19:15:24;2.50;;;1.50;;
16312;SDS011;8265;52.622;13.296;2022-08-01T19:20:45;1.60;;;0.80;;
16312;SDS011;8265;52.622;13.296;2022-08-01T19:26:06;0.90;;;0.90;;
16312;SDS011;8265;52.622;13.296;2022-08-01T19:31:27;1.10;;;1.00;;
16312;SDS011;8265;52.622;13.296;2022-08-01T19:36:49;1.30;;;0.90;;
16312;SDS011;8265;52.622;13.296;2022-08-01T19:42:09;2.00;;;1.20;;
16312;SDS011;8265;52.622;13.296;2022-08-01T19:47:30;1.80;;;1.10;;
16312;SDS011;8265;52.622;13.296;2022-08-01T19:52:51;2.70;;;1.30;;
16312;SDS011;8265;52.622;13.296;2022-08-01T19:58:12;1.80;;;1.40;;
16312;SDS011;8265;52.622;13.296;2022-08-01T20:03:34;1.10;;;1.00;;
16312;SDS011;8265;52.622;13.296;2022-08-01T20:08:54;1.20;;;1.00;;
16312;SDS011;8265;52.622;13.296;2022-08-01T20:14:15;1.30;;;1.10;;
16312;SDS011;8265;52.622;13.296;2022-08-01T20:19:36;4.60;;;1.60;;
16312;SDS011;8265;52.622;13.296;2022-08-01T20:24:57;2.10;;;1.90;;
16312;SDS011;8265;52.622;13.296;2022-08-01T20:30:17;2.10;;;1.50;;
16312;SDS011;8265;52.622;13.296;2022-08-01T20:35:39;0.80;;;0.80;;
16312;SDS011;8265;52.622;13.296;2022-08-01T20:41:00;1.60;;;1.30;;
16312;SDS011;8265;52.622;13.296;2022-08-01T20:46:23;5.70;;;1.00;;
16312;SDS011;8265;52.622;13.296;2022-08-01T20:51:42;3.30;;;2.50;;
16312;SDS011;8265;52.622;13.296;2022-08-01T20:57:04;10.40;;;1.80;;
16312;SDS011;8265;52.622;13.296;2022-08-01T21:02:29;3.70;;;1.70;;
16312;SDS011;8265;52.622;13.296;2022-08-01T21:07:45;1.10;;;1.10;;
16312;SDS011;8265;52.622;13.296;2022-08-01T21:13:06;3.30;;;1.00;;
16312;SDS011;8265;52.622;13.296;2022-08-01T21:18:29;2.50;;;2.00;;
16312;SDS011;8265;52.622;13.296;2022-08-01T21:23:49;6.30;;;3.30;;
16312;SDS011;8265;52.622;13.296;2022-08-01T21:29:09;1.80;;;1.70;;
16312;SDS011;8265;52.622;13.296;2022-08-01T21:34:29;2.00;;;1.80;;
16312;SDS011;8265;52.622;13.296;2022-08-01T21:39:50;3.50;;;2.10;;
16312;SDS011;8265;52.622;13.296;2022-08-01T21:45:11;2.20;;;1.60;;
16312;SDS011;8265;52.622;13.296;2022-08-01T21:50:37;2.00;;;1.80;;
16312;SDS011;8265;52.622;13.296;2022-08-01T21:55:55;6.90;;;3.40;;
16312;SDS011;8265;52.622;13.296;2022-08-01T22:01:16;1.80;;;1.70;;
16312;SDS011;8265;52.622;13.296;2022-08-01T22:06:35;1.90;;;1.70;;
16312;SDS011;8265;52.622;13.296;2022-08-01T22:11:56;2.20;;;1.40;;
16312;SDS011;8265;52.622;13.296;2022-08-01T22:17:18;2.70;;;2.20;;
16312;SDS011;8265;52.622;13.296;2022-08-01T22:22:37;9.40;;;3.00;;
16312;SDS011;8265;52.622;13.296;2022-08-01T22:27:58;3.10;;;2.30;;
16312;SDS011;8265;52.622;13.296;2022-08-01T22:33:19;7.00;;;3.50;;
16312;SDS011;8265;52.622;13.296;2022-08-01T22:38:40;7.30;;;3.70;;
16312;SDS011;8265;52.622;13.296;2022-08-01T22:44:03;3.80;;;2.20;;
16312;SDS011;8265;52.622;13.296;2022-08-01T22:49:24;6.30;;;3.00;;
16312;SDS011;8265;52.622;13.296;2022-08-01T22:54:48;8.30;;;2.90;;
16312;SDS011;8265;52.622;13.296;2022-08-01T23:00:06;4.60;;;2.70;;
16312;SDS011;8265;52.622;13.296;2022-08-01T23:05:25;6.70;;;3.30;;
16312;SDS011;8265;52.622;13.296;2022-08-01T23:10:46;6.50;;;3.10;;
16312;SDS011;8265;52.622;13.296;2022-08-01T23:16:07;5.20;;;2.80;;
16312;SDS011;8265;52.622;13.296;2022-08-01T23:21:28;7.20;;;3.30;;
16312;SDS011;8265;52.622;13.296;2022-08-01T23:26:49;6.80;;;3.70;;
16312;SDS011;8265;52.622;13.296;2022-08-01T23:32:10;9.30;;;3.30;;
16312;SDS011;8265;52.622;13.296;2022-08-01T23:37:31;8.00;;;2.80;;
16312;SDS011;8265;52.622;13.296;2022-08-01T23:42:52;3.10;;;2.80;;
16312;SDS011;8265;52.622;13.296;2022-08-01T23:48:13;3.60;;;2.80;;
16312;SDS011;8265;52.622;13.296;2022-08-01T23:53:34;4.30;;;2.90;;
16312;SDS011;8265;52.622;13.296;2022-08-01T23:58:55;6.50;;;2.80;;
